Terminal Aerodrome Forecast
Issued by NWS Wilmington, OH

Current Version | Previous Version | Graphics & Text | Print | Product List | Glossary On
Versions: 1 2 3 4 5 6 7 8 9 10 11 12 13 14 15 16 17 18 19 20 21 22 23 24 25
000
FTUS41 KILN 270307 AAA
TAFCMH
TAF AMD
KCMH 270307Z 2703/2724 VRB03KT P6SM SHRA BKN090
     FM270400 VRB03KT P6SM SHRA VCTS BKN060CB
      TEMPO 2704/2706 4SM TSRA OVC025CB
     FM270900 13005KT P6SM VCSH BKN018
     FM271800 02006KT P6SM BKN025=

USA.gov is the U.S. government's official web portal to all federal, state and local government web resources and services.